Time;durP1;ratioP1;P1;durP2;ratioP2;P2;SDS_P1;SDS_P2;PMS_P1;PMS_P2;Temp;Humidity;BMP_temperature;BMP_pressure;BME280_temperature;BME280_humidity;BME280_pressure;Samples;Min_cycle;Max_cycle;Signal;HPM_P1;HPM_P2
2022/08/19 00:00:28;;;;;;;9.10;4.53;;;;;;;20.21;100.00;99268.20;1681374;84;21049;-77
2022/08/19 00:02:55;;;;;;;10.15;4.17;;;;;;;20.21;100.00;99275.68;1697259;83;21117;-78
2022/08/19 00:05:22;;;;;;;8.83;4.08;;;;;;;20.21;100.00;99275.11;1712743;83;21093;-78
2022/08/19 00:07:49;;;;;;;7.12;4.33;;;;;;;20.19;100.00;99273.25;1698059;83;21060;-77
2022/08/19 00:10:16;;;;;;;8.90;4.37;;;;;;;20.15;100.00;99280.64;1705807;83;21078;-77
2022/08/19 00:12:42;;;;;;;12.82;4.33;;;;;;;20.14;100.00;99283.17;1695351;84;21053;-77
2022/08/19 00:15:12;;;;;;;8.25;3.67;;;;;;;20.15;100.00;99283.41;1694880;84;21486;-77
2022/08/19 00:17:40;;;;;;;9.15;4.00;;;;;;;20.16;100.00;99289.14;1705822;83;21045;-77
2022/08/19 00:20:08;;;;;;;11.75;4.40;;;;;;;20.16;100.00;99286.95;1706361;83;21521;-77
2022/08/19 00:22:34;;;;;;;11.03;4.67;;;;;;;20.15;100.00;99291.70;1709188;83;21018;-77
2022/08/19 00:25:01;;;;;;;10.55;4.28;;;;;;;20.09;100.00;99290.30;1704987;83;21024;-77
2022/08/19 00:27:28;;;;;;;8.38;4.60;;;;;;;20.06;100.00;99290.17;1695788;83;21081;-77
2022/08/19 00:29:55;;;;;;;8.95;4.30;;;;;;;19.99;100.00;99287.99;1685970;84;21741;-77
2022/08/19 00:32:21;;;;;;;11.95;4.35;;;;;;;19.94;100.00;99289.63;1702707;83;21089;-77
2022/08/19 00:34:48;;;;;;;9.93;4.37;;;;;;;19.91;100.00;99301.33;1696201;83;21026;-77
2022/08/19 00:37:14;;;;;;;8.75;4.30;;;;;;;19.83;100.00;99292.59;1694988;84;21086;-77
2022/08/19 00:39:41;;;;;;;13.58;4.65;;;;;;;19.78;100.00;99298.33;1680572;83;21037;-77
2022/08/19 00:42:07;;;;;;;13.72;3.95;;;;;;;19.78;100.00;99296.95;1666991;83;21054;-77
2022/08/19 00:44:35;;;;;;;9.40;4.53;;;;;;;19.76;100.00;99295.93;1677056;84;21114;-78
2022/08/19 00:47:01;;;;;;;11.15;4.90;;;;;;;19.77;100.00;99300.85;1715536;83;21066;-77
2022/08/19 00:49:37;;;;;;;9.48;4.53;;;;;;;19.72;100.00;99299.70;1717599;83;21061;-77
2022/08/19 00:52:11;;;;;;;11.63;4.10;;;;;;;19.66;100.00;99303.84;1693598;84;21061;-75
2022/08/19 00:54:38;;;;;;;9.15;4.00;;;;;;;19.61;100.00;99309.00;1701633;83;21576;-76
2022/08/19 00:57:09;;;;;;;9.18;4.40;;;;;;;19.63;100.00;99309.45;1699019;83;21113;-75
2022/08/19 00:59:37;;;;;;;11.97;4.75;;;;;;;19.64;100.00;99305.56;1686607;83;21090;-77
2022/08/19 01:02:04;;;;;;;9.70;4.95;;;;;;;19.64;100.00;99310.27;1668503;84;21087;-76
2022/08/19 01:04:31;;;;;;;11.80;4.50;;;;;;;19.58;100.00;99306.13;1686172;84;21010;-77
2022/08/19 01:06:58;;;;;;;8.15;4.50;;;;;;;19.51;100.00;99310.83;1669717;84;21633;-77
2022/08/19 01:09:25;;;;;;;10.13;4.40;;;;;;;19.50;100.00;99318.87;1681597;85;21574;-77
2022/08/19 01:11:51;;;;;;;13.65;5.08;;;;;;;19.49;100.00;99310.91;1683618;84;21122;-77
2022/08/19 01:14:18;;;;;;;13.13;5.15;;;;;;;19.47;100.00;99312.65;1688165;84;21058;-76
2022/08/19 01:16:46;;;;;;;8.73;4.35;;;;;;;19.44;100.00;99313.91;1692843;84;21103;-76
2022/08/19 01:19:21;;;;;;;10.20;4.95;;;;;;;19.41;100.00;99311.26;1694805;84;21087;-77
2022/08/19 01:22:01;;;;;;;11.48;4.92;;;;;;;19.40;100.00;99309.61;1699965;84;21608;-76
2022/08/19 01:24:28;;;;;;;11.45;5.17;;;;;;;19.36;100.00;99310.86;1677363;84;21075;-77
2022/08/19 01:26:54;;;;;;;7.17;4.50;;;;;;;19.32;100.00;99309.92;1690672;84;21557;-77
2022/08/19 01:29:21;;;;;;;9.35;4.55;;;;;;;19.26;100.00;99305.77;1674947;84;21051;-76
2022/08/19 01:31:48;;;;;;;10.58;4.70;;;;;;;19.25;100.00;99301.95;1691899;84;21741;-77
2022/08/19 01:34:15;;;;;;;16.97;5.12;;;;;;;19.28;100.00;99304.84;1682921;84;21051;-77
2022/08/19 01:36:45;;;;;;;9.33;4.40;;;;;;;19.28;100.00;99308.98;1684437;84;21063;-77
2022/08/19 01:39:14;;;;;;;11.83;4.58;;;;;;;19.27;100.00;99299.08;1681347;84;21095;-77
2022/08/19 01:41:40;;;;;;;11.70;4.45;;;;;;;19.26;100.00;99295.30;1685060;84;21577;-77
2022/08/19 01:44:08;;;;;;;8.80;4.80;;;;;;;19.25;100.00;99298.63;1694792;84;21083;-77
2022/08/19 01:46:34;;;;;;;10.43;5.12;;;;;;;19.22;100.00;99296.55;1681788;84;21095;-76
2022/08/19 01:49:04;;;;;;;12.68;5.08;;;;;;;19.14;100.00;99296.05;1678393;84;21055;-76
2022/08/19 01:51:31;;;;;;;9.75;5.03;;;;;;;19.08;100.00;99296.03;1701319;84;21129;-76
2022/08/19 01:53:58;;;;;;;13.48;5.55;;;;;;;19.06;100.00;99295.55;1693942;84;21047;-75
2022/08/19 01:56:25;;;;;;;12.68;5.90;;;;;;;19.03;100.00;99298.98;1686755;84;21581;-75
2022/08/19 01:58:59;;;;;;;10.63;5.10;;;;;;;18.95;100.00;99298.52;1690375;84;21075;-76
2022/08/19 02:01:26;;;;;;;12.40;4.72;;;;;;;18.89;100.00;99299.27;1688812;84;21083;-75
2022/08/19 02:03:53;;;;;;;13.35;5.83;;;;;;;18.91;100.00;99300.33;1686246;84;21066;-76
2022/08/19 02:06:20;;;;;;;12.55;4.92;;;;;;;18.92;100.00;99294.24;1677525;84;21067;-76
2022/08/19 02:08:48;;;;;;;11.93;4.70;;;;;;;18.85;100.00;99286.48;1696258;84;21098;-76
2022/08/19 02:11:26;;;;;;;12.00;4.60;;;;;;;18.81;100.00;99288.33;1680472;84;21139;-75
2022/08/19 02:13:54;;;;;;;7.28;5.20;;;;;;;18.82;100.00;99287.16;1690623;84;21011;-76
2022/08/19 02:16:21;;;;;;;9.25;4.78;;;;;;;18.77;100.00;99296.47;1692989;84;21074;-75
2022/08/19 02:18:50;;;;;;;10.43;4.78;;;;;;;18.75;100.00;99294.59;1680532;84;21075;-76
2022/08/19 02:21:18;;;;;;;9.38;4.60;;;;;;;18.77;100.00;99290.14;1682834;84;21062;-76
2022/08/19 02:23:44;;;;;;;8.08;5.30;;;;;;;18.79;100.00;99301.06;1666642;84;22147;-75
2022/08/19 02:26:12;;;;;;;11.65;5.12;;;;;;;18.71;100.00;99286.76;1666308;85;21150;-76
2022/08/19 02:28:40;;;;;;;10.85;4.90;;;;;;;18.74;100.00;99295.73;1666383;85;21444;-77
2022/08/19 02:31:14;;;;;;;12.82;5.00;;;;;;;18.74;100.00;99301.84;1660843;85;21083;-77
2022/08/19 02:33:41;;;;;;;8.13;4.83;;;;;;;18.75;100.00;99302.06;1677792;85;21059;-78
2022/08/19 02:36:09;;;;;;;13.45;5.62;;;;;;;18.72;100.00;99306.87;1674594;85;21103;-75
2022/08/19 02:38:36;;;;;;;16.48;5.62;;;;;;;18.71;100.00;99301.92;1660330;85;21745;-75
2022/08/19 02:41:09;;;;;;;12.15;5.30;;;;;;;18.64;100.00;99300.27;1670632;85;21674;-76
2022/08/19 02:43:36;;;;;;;8.98;5.45;;;;;;;18.56;100.00;99310.00;1657057;85;21131;-75
2022/08/19 02:46:23;;;;;;;9.65;5.03;;;;;;;18.51;100.00;99307.42;1678104;85;21079;-75
2022/08/19 02:48:53;;;;;;;14.80;5.83;;;;;;;18.52;100.00;99310.42;1677689;84;21717;-73
2022/08/19 02:51:24;;;;;;;14.35;5.97;;;;;;;18.48;100.00;99315.77;1722771;82;21130;-75
2022/08/19 02:53:51;;;;;;;12.68;6.10;;;;;;;18.42;100.00;99319.05;1719288;82;21063;-73
2022/08/19 02:56:18;;;;;;;13.45;5.85;;;;;;;18.38;100.00;99323.86;1718345;82;21118;-76
2022/08/19 02:58:45;;;;;;;10.03;5.67;;;;;;;18.36;100.00;99326.12;1720061;82;21581;-76
2022/08/19 03:01:25;;;;;;;10.72;5.60;;;;;;;18.37;100.00;99330.50;1723408;82;21093;-76
2022/08/19 03:03:51;;;;;;;10.68;6.90;;;;;;;18.33;100.00;99323.22;1729308;82;21496;-75
2022/08/19 03:06:19;;;;;;;14.70;8.20;;;;;;;18.29;100.00;99322.27;1730467;82;21055;-75
2022/08/19 03:08:46;;;;;;;17.50;7.30;;;;;;;18.26;100.00;99318.80;1717411;82;21506;-74
2022/08/19 03:11:17;;;;;;;13.65;7.17;;;;;;;18.27;100.00;99319.86;1720381;82;21043;-75
2022/08/19 03:13:43;;;;;;;10.90;7.72;;;;;;;18.28;100.00;99320.67;1715340;82;21395;-75
2022/08/19 03:16:12;;;;;;;12.03;6.83;;;;;;;18.27;100.00;99326.75;1711985;82;21051;-74
2022/08/19 03:18:39;;;;;;;20.45;6.85;;;;;;;18.27;100.00;99324.56;1720204;82;21079;-75
2022/08/19 03:21:05;;;;;;;13.25;6.78;;;;;;;18.23;100.00;99323.04;1719529;82;21058;-74
2022/08/19 03:23:32;;;;;;;10.20;6.45;;;;;;;18.23;100.00;99323.04;1720030;82;21507;-74
2022/08/19 03:25:59;;;;;;;13.13;7.75;;;;;;;18.27;100.00;99325.94;1738660;82;21102;-74
2022/08/19 03:28:25;;;;;;;;;;;;;;;18.30;100.00;99326.65;1750169;82;21011;-75
2022/08/19 03:31:02;;;;;;;15.55;9.60;;;;;;;18.37;100.00;99331.88;1731521;82;20123;-75
2022/08/19 03:33:29;;;;;;;14.38;8.55;;;;;;;18.32;100.00;99343.08;1732150;82;21049;-76
2022/08/19 03:36:07;;;;;;;12.95;7.50;;;;;;;18.29;100.00;99338.23;1736822;82;21063;-75
2022/08/19 03:38:38;;;;;;;16.05;7.05;;;;;;;18.31;100.00;99334.59;1733594;82;21910;-73
2022/08/19 03:41:07;;;;;;;13.98;7.30;;;;;;;18.34;100.00;99333.92;1734858;82;21075;-73
2022/08/19 03:43:36;;;;;;;18.10;6.97;;;;;;;18.35;100.00;99330.01;1730311;82;21079;-74
2022/08/19 03:46:13;;;;;;;12.85;6.20;;;;;;;18.35;100.00;99325.88;1705844;83;21122;-76
2022/08/19 03:48:40;;;;;;;16.65;7.05;;;;;;;18.38;100.00;99320.29;1744063;82;21031;-75
2022/08/19 03:51:07;;;;;;;15.50;6.30;;;;;;;18.42;100.00;99328.13;1737901;82;21553;-76
2022/08/19 03:53:34;;;;;;;9.98;5.87;;;;;;;18.44;100.00;99328.59;1729357;82;21047;-71
2022/08/19 03:56:01;;;;;;;12.95;6.42;;;;;;;18.48;100.00;99332.87;1746002;82;21035;-74
2022/08/19 03:58:29;;;;;;;8.75;5.72;;;;;;;18.48;100.00;99328.73;1728648;82;21094;-73
2022/08/19 04:00:56;;;;;;;10.98;5.80;;;;;;;18.47;100.00;99335.38;1730489;82;21086;-70
2022/08/19 04:03:26;;;;;;;13.60;5.60;;;;;;;18.54;100.00;99332.94;1750155;82;21046;-73
2022/08/19 04:05:53;;;;;;;11.75;5.65;;;;;;;18.67;100.00;99342.92;1732374;82;21080;-74
2022/08/19 04:08:22;;;;;;;12.03;5.75;;;;;;;18.84;100.00;99345.56;1738780;82;21138;-74
2022/08/19 04:10:49;;;;;;;13.78;5.97;;;;;;;19.03;100.00;99345.06;1728605;82;21675;-72
2022/08/19 04:13:16;;;;;;;11.55;5.83;;;;;;;19.17;100.00;99349.17;1744301;82;20987;-71
2022/08/19 04:15:44;;;;;;;14.10;5.72;;;;;;;19.34;100.00;99348.23;1752215;82;21050;-72
2022/08/19 04:18:11;;;;;;;9.90;5.37;;;;;;;19.59;100.00;99358.82;1747770;82;21498;-71
2022/08/19 04:20:44;;;;;;;8.65;5.40;;;;;;;19.84;100.00;99357.14;1734669;82;21083;-74
2022/08/19 04:23:13;;;;;;;13.75;5.90;;;;;;;20.01;100.00;99351.20;1726305;82;20979;-73
2022/08/19 04:25:41;;;;;;;11.60;5.85;;;;;;;20.14;100.00;99343.97;1721716;82;21114;-76
2022/08/19 04:28:09;;;;;;;13.75;6.95;;;;;;;20.31;100.00;99344.34;1730538;82;20996;-72
2022/08/19 04:30:40;;;;;;;12.03;7.30;;;;;;;20.45;100.00;99348.94;1741397;82;21078;-71
2022/08/19 04:33:07;;;;;;;11.08;7.22;;;;;;;20.65;100.00;99341.69;1738283;82;20956;-74
2022/08/19 04:35:42;;;;;;;10.32;6.97;;;;;;;20.73;100.00;99339.34;1744308;82;21044;-74
2022/08/19 04:38:08;;;;;;;12.00;6.90;;;;;;;20.78;100.00;99337.16;1734909;82;20979;-75
2022/08/19 04:43:33;;;;;;;13.30;6.97;;;;;;;21.26;100.00;99344.54;1728030;82;21050;-73
2022/08/19 04:46:10;;;;;;;13.28;7.00;;;;;;;21.42;100.00;99347.95;1716931;82;21118;-74
2022/08/19 04:48:38;;;;;;;13.98;6.67;;;;;;;21.59;100.00;99344.28;1745020;82;21080;-75
2022/08/19 04:51:12;;;;;;;15.45;6.78;;;;;;;21.72;100.00;99339.47;1744184;82;21110;-75
2022/08/19 04:53:40;;;;;;;11.22;5.78;;;;;;;21.76;100.00;99337.61;1716674;82;21596;-72
2022/08/19 04:56:16;;;;;;;13.35;5.42;;;;;;;21.86;100.00;99330.16;1742354;82;21378;-72
2022/08/19 04:58:43;;;;;;;14.45;6.17;;;;;;;21.95;100.00;99336.95;1746784;82;21045;-71
2022/08/19 05:01:24;;;;;;;11.68;5.10;;;;;;;22.12;100.00;99333.82;1740309;82;21091;-73
2022/08/19 05:03:51;;;;;;;12.75;5.40;;;;;;;22.38;100.00;99341.59;1727553;82;21613;-70
2022/08/19 05:06:19;;;;;;;11.50;4.53;;;;;;;22.57;100.00;99334.70;1719822;82;21976;-70
2022/08/19 05:08:48;;;;;;;12.28;4.70;;;;;;;22.63;100.00;99332.70;1718370;82;21063;-73
2022/08/19 05:11:20;;;;;;;15.80;4.67;;;;;;;22.53;100.00;99336.63;1716595;82;21040;-73
2022/08/19 05:13:48;;;;;;;9.28;4.35;;;;;;;22.53;100.00;99339.39;1734421;82;21532;-71
2022/08/19 05:16:17;;;;;;;9.48;4.00;;;;;;;22.45;100.00;99337.61;1739404;82;21110;-71
2022/08/19 05:24:16;;;;;;;10.10;4.10;;;;;;;22.38;100.00;99342.98;1722727;82;21023;-76
2022/08/19 05:26:46;;;;;;;9.35;4.50;;;;;;;22.53;100.00;99338.78;1732218;82;21338;-75
2022/08/19 05:29:14;;;;;;;9.10;4.08;;;;;;;22.66;100.00;99331.17;1727753;82;21439;-75
2022/08/19 05:31:40;;;;;;;8.15;3.83;;;;;;;22.66;100.00;99331.17;1741085;82;21118;-76
2022/08/19 05:34:07;;;;;;;9.18;3.98;;;;;;;22.76;100.00;99342.55;1738276;82;21090;-73
2022/08/19 05:38:44;;;;;;;11.30;4.33;;;;;;;22.89;100.00;99332.11;1805283;78;23204;-70
2022/08/19 05:41:12;;;;;;;9.35;3.95;;;;;;;22.90;100.00;99339.86;1758208;81;21078;-69
2022/08/19 05:43:38;;;;;;;9.20;4.15;;;;;;;23.03;100.00;99331.61;1758175;80;21547;-67
2022/08/19 05:46:06;;;;;;;12.07;4.30;;;;;;;23.05;100.00;99323.73;1760849;81;20994;-71
2022/08/19 05:48:34;;;;;;;14.18;4.08;;;;;;;23.08;100.00;99333.53;1760797;80;21034;-71
2022/08/19 05:51:06;;;;;;;12.35;4.40;;;;;;;23.08;100.00;99333.53;1758643;81;21502;-71
2022/08/19 05:53:33;;;;;;;9.60;4.53;;;;;;;23.31;100.00;99335.01;1753271;80;21086;-71
2022/08/19 05:56:12;;;;;;;9.50;4.15;;;;;;;23.31;100.00;99335.01;1750032;81;20987;-70
2022/08/19 05:58:39;;;;;;;10.55;4.78;;;;;;;23.39;100.00;99331.77;1756737;81;21584;-69
2022/08/19 06:01:14;;;;;;;11.10;5.05;;;;;;;23.38;100.00;99326.02;1754190;80;21018;-70
2022/08/19 06:03:41;;;;;;;16.80;9.88;;;;;;;23.52;100.00;99338.24;1701224;81;21074;-70
2022/08/19 06:06:08;;;;;;;10.45;4.42;;;;;;;23.55;100.00;99334.72;1760303;81;21027;-69
2022/08/19 06:08:37;;;;;;;12.78;4.90;;;;;;;23.49;100.00;99335.39;1760194;80;21586;-73
2022/08/19 06:11:25;;;;;;;11.03;4.60;;;;;;;23.59;100.00;99338.96;1753026;81;20982;-74
2022/08/19 06:13:53;;;;;;;14.87;6.67;;;;;;;23.79;100.00;99335.77;1757782;80;21104;-71
2022/08/19 06:16:23;;;;;;;12.82;4.80;;;;;;;24.07;100.00;99332.69;1760424;81;21450;-70
2022/08/19 06:18:51;;;;;;;10.32;4.40;;;;;;;24.13;100.00;99330.42;1760370;80;21043;-70
2022/08/19 06:21:22;;;;;;;12.03;3.83;;;;;;;24.24;100.00;99322.48;1758817;80;21046;-71
2022/08/19 06:23:50;;;;;;;18.37;6.60;;;;;;;24.39;100.00;99315.75;1749227;81;21835;-70
2022/08/19 06:26:18;;;;;;;10.28;3.75;;;;;;;24.35;100.00;99323.23;1761996;81;21358;-74
2022/08/19 06:28:48;;;;;;;38.30;14.55;;;;;;;24.33;100.00;99322.81;1751373;81;21065;-73
2022/08/19 06:31:17;;;;;;;11.15;4.35;;;;;;;24.35;100.00;99322.66;1757991;80;21486;-73
2022/08/19 06:33:44;;;;;;;73.05;24.60;;;;;;;24.43;100.00;99329.94;1725939;81;21123;-72
2022/08/19 06:36:31;;;;;;;15.40;5.83;;;;;;;24.54;100.00;99333.70;1725982;83;21086;-72
2022/08/19 06:38:59;;;;;;;17.70;6.25;;;;;;;24.77;100.00;99329.45;1702478;83;21133;-72
2022/08/19 06:41:26;;;;;;;14.78;4.37;;;;;;;24.70;100.00;99339.09;1698320;83;20999;-73
2022/08/19 06:43:54;;;;;;;12.88;4.35;;;;;;;24.63;100.00;99341.17;1698670;83;21084;-73
2022/08/19 06:46:20;;;;;;;11.03;3.80;;;;;;;24.67;100.00;99338.45;1700234;83;21061;-72
2022/08/19 06:48:47;;;;;;;10.20;4.05;;;;;;;24.82;100.00;99336.09;1671395;84;21091;-71
2022/08/19 06:51:18;;;;;;;9.70;3.77;;;;;;;25.07;100.00;99325.33;1698214;83;21035;-70
2022/08/19 06:53:46;;;;;;;10.28;4.08;;;;;;;25.22;100.00;99323.72;1704568;83;21099;-74
2022/08/19 06:56:17;;;;;;;11.05;3.50;;;;;;;25.30;100.00;99322.41;1697867;83;21090;-72
2022/08/19 06:58:44;;;;;;;9.73;3.75;;;;;;;25.32;100.00;99318.67;1646265;84;21102;-69
2022/08/19 07:01:11;;;;;;;10.72;3.60;;;;;;;25.23;100.00;99329.51;1698435;84;21408;-73
2022/08/19 07:03:38;;;;;;;14.55;3.75;;;;;;;25.21;100.00;99322.72;1757895;80;21050;-74
2022/08/19 07:06:09;;;;;;;13.13;3.85;;;;;;;25.21;100.00;99323.53;1742620;81;21027;-70
2022/08/19 07:08:36;;;;;;;12.40;3.83;;;;;;;25.22;100.00;99316.75;1753844;81;21121;-71
2022/08/19 07:11:12;;;;;;;8.38;3.70;;;;;;;25.13;100.00;99323.22;1754848;82;21511;-74
2022/08/19 07:13:39;;;;;;;10.48;3.70;;;;;;;25.25;100.00;99323.57;1755024;80;21532;-74
2022/08/19 07:16:13;;;;;;;11.35;3.77;;;;;;;25.39;100.00;99327.11;1745227;81;21466;-74
2022/08/19 07:18:40;;;;;;;11.83;3.60;;;;;;;25.53;100.00;99314.19;1753554;81;21062;-73
2022/08/19 07:21:14;;;;;;;9.93;4.15;;;;;;;25.67;100.00;99320.50;1733332;81;21601;-73
2022/08/19 07:23:41;;;;;;;10.10;4.80;;;;;;;25.80;100.00;99309.27;1757347;80;21451;-70
2022/08/19 07:26:12;;;;;;;11.33;4.42;;;;;;;25.91;100.00;99299.61;1752803;81;21019;-70
2022/08/19 07:28:39;;;;;;;9.38;4.42;;;;;;;26.03;100.00;99300.14;1752703;81;21028;-73
2022/08/19 07:31:07;;;;;;;12.70;4.12;;;;;;;26.12;100.00;99305.38;1734326;81;21023;-72
2022/08/19 07:33:35;;;;;;;12.05;4.00;;;;;;;26.14;100.00;99292.67;1723837;82;21053;-73
2022/08/19 07:36:05;;;;;;;10.40;4.03;;;;;;;25.90;100.00;99286.88;1752823;81;20995;-71
2022/08/19 07:38:32;;;;;;;10.72;4.53;;;;;;;25.81;100.00;99294.74;1757140;80;21152;-71
2022/08/19 07:40:59;;;;;;;11.43;5.20;;;;;;;25.95;100.00;99298.47;1744377;80;21509;-70
2022/08/19 07:43:27;;;;;;;8.93;4.30;;;;;;;26.10;100.00;99297.41;1752425;81;21086;-70
2022/08/19 07:45:56;;;;;;;16.20;5.47;;;;;;;25.98;100.00;99300.48;1756292;81;21510;-70
2022/08/19 07:48:28;;;;;;;13.45;4.53;;;;;;;25.97;100.00;99303.67;1749162;81;21558;-71
2022/08/19 07:50:56;;;;;;;12.65;4.87;;;;;;;26.00;100.00;99309.88;1753873;80;21050;-69
2022/08/19 07:53:23;;;;;;;16.55;4.80;;;;;;;26.02;100.00;99309.69;1750308;81;21122;-70
2022/08/19 07:55:50;;;;;;;12.30;4.45;;;;;;;26.12;100.00;99306.19;1755171;82;20966;-69
2022/08/19 07:58:19;;;;;;;11.00;3.87;;;;;;;26.23;100.00;99314.09;1750462;81;21498;-71
2022/08/19 08:00:49;;;;;;;8.93;4.42;;;;;;;26.33;100.00;99314.55;1745566;80;20971;-74
2022/08/19 08:03:17;;;;;;;10.88;4.22;;;;;;;26.31;100.00;99323.31;1755491;81;21047;-72
2022/08/19 08:11:12;;;;;;;10.58;4.35;;;;;;;26.22;100.00;99324.22;1723743;80;20962;-68
2022/08/19 08:13:41;;;;;;;14.38;4.65;;;;;;;26.19;100.00;99335.57;1743699;80;21074;-70
2022/08/19 08:16:07;;;;;;;10.58;4.15;;;;;;;26.16;100.00;99324.34;1689678;83;20991;-72
2022/08/19 08:18:41;;;;;;;14.75;4.20;;;;;;;26.26;100.00;99334.83;1719318;83;21685;-71
2022/08/19 08:21:03;;;;;;;13.03;4.53;;;;;;;26.27;100.00;99332.84;1690311;83;21070;-71
2022/08/19 08:23:29;;;;;;;10.53;4.97;;;;;;;26.18;100.00;99345.12;1683364;84;21118;-73
2022/08/19 08:25:57;;;;;;;12.05;4.70;;;;;;;26.16;100.00;99341.89;1715297;83;21489;-75
2022/08/19 08:28:25;;;;;;;11.78;4.47;;;;;;;26.15;100.00;99351.44;1702179;83;21066;-72
2022/08/19 08:30:51;;;;;;;25.17;4.55;;;;;;;26.09;100.00;99351.59;1656819;83;21654;-71
2022/08/19 08:33:24;;;;;;;11.10;4.95;;;;;;;25.96;100.00;99345.29;1704069;83;21089;-71
2022/08/19 08:35:52;;;;;;;11.25;4.20;;;;;;;25.93;100.00;99347.45;1693257;83;21482;-72
2022/08/19 08:38:19;;;;;;;11.45;4.60;;;;;;;26.03;100.00;99353.14;1697480;83;21135;-74
2022/08/19 08:40:55;;;;;;;10.68;4.87;;;;;;;26.08;100.00;99353.36;1677882;85;21038;-73
2022/08/19 08:43:38;;;;;;;11.08;4.60;;;;;;;26.10;100.00;99349.02;1745862;81;21063;-73
2022/08/19 08:46:12;;;;;;;12.50;4.72;;;;;;;26.14;100.00;99361.02;1747517;81;21004;-70
2022/08/19 08:48:53;;;;;;;11.30;4.62;;;;;;;26.25;100.00;99363.13;1745748;81;21082;-70
2022/08/19 08:51:28;;;;;;;11.50;4.70;;;;;;;26.26;100.00;99361.91;1747091;81;21023;-72
2022/08/19 08:53:54;;;;;;;15.32;4.20;;;;;;;26.27;100.00;99355.16;1733682;80;21090;-72
2022/08/19 08:56:20;;;;;;;12.68;5.08;;;;;;;26.42;100.00;99354.09;1744535;81;21027;-71
2022/08/19 08:59:16;;;;;;;13.18;4.62;;;;;;;26.40;100.00;99346.69;1746760;81;21110;-71
2022/08/19 09:01:43;;;;;;;14.50;4.80;;;;;;;26.34;100.00;99348.24;1739244;81;21023;-70
2022/08/19 09:04:09;;;;;;;12.13;5.00;;;;;;;26.22;100.00;99347.94;1738714;81;21051;-71
2022/08/19 09:06:51;;;;;;;14.73;5.22;;;;;;;26.20;100.00;99347.53;1715697;83;21037;-70
2022/08/19 09:09:43;;;;;;;11.50;4.78;;;;;;;26.21;100.00;99348.55;1731218;81;21134;-72
2022/08/19 09:12:27;;;;;;;11.43;4.58;;;;;;;26.18;100.00;99340.93;1716681;81;21024;-71
2022/08/19 09:15:01;;;;;;;13.95;5.15;;;;;;;26.12;100.00;99353.61;1703921;83;21036;-70
2022/08/19 09:17:33;;;;;;;13.08;4.95;;;;;;;26.12;100.00;99351.41;1738603;81;21003;-71
2022/08/19 09:20:14;;;;;;;11.45;4.67;;;;;;;26.18;100.00;99343.72;1743842;81;21506;-71
2022/08/19 09:22:45;;;;;;;17.05;4.80;;;;;;;26.28;100.00;99342.81;1721508;82;21130;-71
2022/08/19 09:25:14;;;;;;;8.58;4.50;;;;;;;26.37;100.00;99346.07;1746351;81;21482;-72
2022/08/19 09:27:42;;;;;;;14.00;4.97;;;;;;;26.38;100.00;99346.28;1746609;81;21498;-69
2022/08/19 09:30:25;;;;;;;12.28;5.03;;;;;;;26.44;100.00;99355.89;1732824;81;21025;-73
2022/08/19 09:32:54;;;;;;;9.85;4.83;;;;;;;26.50;100.00;99358.56;1726916;81;21079;-69
2022/08/19 09:35:23;;;;;;;18.20;5.08;;;;;;;26.42;100.00;99359.68;1745717;81;21012;-75
2022/08/19 09:37:50;;;;;;;14.35;5.50;;;;;;;26.34;100.00;99358.01;1747719;81;21074;-77
2022/08/19 09:40:17;;;;;;;15.80;5.00;;;;;;;26.25;100.00;99362.53;1755251;81;21056;-76
2022/08/19 09:42:46;;;;;;;11.38;5.12;;;;;;;26.20;100.00;99360.89;1755169;82;20967;-79
2022/08/19 09:45:16;;;;;;;11.45;5.03;;;;;;;26.14;100.00;99375.55;1740732;80;21065;-75
2022/08/19 09:47:43;;;;;;;11.00;4.97;;;;;;;26.19;100.00;99374.63;1726646;81;21457;-73
2022/08/19 09:50:11;;;;;;;14.47;4.85;;;;;;;26.20;100.00;99373.45;1745679;80;21069;-76
2022/08/19 09:52:39;;;;;;;10.55;4.80;;;;;;;26.23;100.00;99378.84;1755569;81;21541;-76
2022/08/19 09:55:06;;;;;;;12.95;4.97;;;;;;;26.13;100.00;99371.95;1741564;81;21558;-77
2022/08/19 09:57:33;;;;;;;14.05;4.62;;;;;;;26.06;100.00;99369.69;1724025;83;21024;-75
2022/08/19 09:59:59;;;;;;;15.10;5.62;;;;;;;26.13;100.00;99372.55;1729506;81;21047;-76
2022/08/19 10:02:26;;;;;;;16.35;5.37;;;;;;;26.14;100.00;99374.96;1750328;82;21054;-76
2022/08/19 10:07:37;;;;;;;10.23;5.20;;;;;;;26.22;100.00;99375.24;1755493;81;21538;-75
2022/08/19 10:10:06;;;;;;;16.12;5.22;;;;;;;26.19;100.00;99377.41;1721467;82;21609;-76
2022/08/19 10:12:34;;;;;;;11.25;5.12;;;;;;;26.03;100.00;99378.83;1726797;82;20991;-78
2022/08/19 10:15:01;;;;;;;12.98;5.47;;;;;;;25.86;100.00;99378.05;1710601;82;21654;-76
2022/08/19 10:17:28;;;;;;;9.68;4.95;;;;;;;25.74;100.00;99375.73;1737772;81;21038;-75
2022/08/19 10:19:57;;;;;;;9.35;4.53;;;;;;;25.74;100.00;99388.88;1755216;80;21676;-77
2022/08/19 10:22:24;;;;;;;14.55;5.10;;;;;;;25.87;100.00;99386.02;1754955;82;21020;-80
2022/08/19 10:24:51;;;;;;;10.68;5.10;;;;;;;25.98;100.00;99381.95;1736537;80;21603;-78
2022/08/19 10:27:18;;;;;;;11.48;5.08;;;;;;;25.94;100.00;99392.26;1742819;81;21038;-77
2022/08/19 10:29:44;;;;;;;14.05;5.00;;;;;;;25.94;100.00;99398.64;1714968;82;21103;-76
2022/08/19 10:32:10;;;;;;;10.72;5.17;;;;;;;25.90;100.00;99410.97;1652561;85;21033;-76
2022/08/19 10:34:37;;;;;;;11.25;5.03;;;;;;;25.97;100.00;99394.31;1692245;83;21154;-74
2022/08/19 10:37:07;;;;;;;15.15;5.05;;;;;;;26.12;100.00;99394.64;1679427;83;21062;-74
2022/08/19 10:39:35;;;;;;;15.10;4.85;;;;;;;26.17;100.00;99398.48;1692203;83;21606;-74
2022/08/19 10:42:10;;;;;;;12.35;5.10;;;;;;;26.19;100.00;99396.14;1747861;81;21067;-76
2022/08/19 10:44:36;;;;;;;11.70;4.95;;;;;;;26.26;100.00;99407.36;1743426;81;21072;-74
2022/08/19 10:47:03;;;;;;;10.03;4.40;;;;;;;26.46;100.00;99406.56;1747230;82;21502;-77
2022/08/19 10:49:32;;;;;;;10.80;5.10;;;;;;;26.51;100.00;99409.78;1747472;81;21527;-74
2022/08/19 10:57:31;;;;;;;12.40;5.00;;;;;;;26.29;100.00;99412.79;1737256;82;21126;-75
2022/08/19 10:59:57;;;;;;;12.03;4.67;;;;;;;26.14;100.00;99414.02;1745482;82;21127;-73
2022/08/19 11:02:23;;;;;;;11.18;4.70;;;;;;;26.07;100.00;99413.14;1747314;81;21015;-75
2022/08/19 11:04:51;;;;;;;11.43;4.40;;;;;;;25.98;100.00;99416.80;1737055;82;21583;-75
2022/08/19 11:07:18;;;;;;;11.35;4.42;;;;;;;25.91;100.00;99413.36;1745878;82;21043;-73
2022/08/19 11:09:46;;;;;;;12.20;4.75;;;;;;;25.90;100.00;99427.08;1735281;81;21561;-73
2022/08/19 11:12:13;;;;;;;12.40;4.35;;;;;;;25.96;100.00;99424.18;1727540;81;21031;-76
2022/08/19 11:14:40;;;;;;;12.18;4.72;;;;;;;26.10;100.00;99416.55;1722253;81;21125;-74
2022/08/19 11:17:06;;;;;;;11.45;4.70;;;;;;;26.16;100.00;99412.22;1721763;81;20987;-77
2022/08/19 11:19:35;;;;;;;12.68;4.60;;;;;;;26.18;100.00;99419.05;1747580;81;21582;-73
2022/08/19 11:22:02;;;;;;;11.60;6.05;;;;;;;26.20;100.00;99416.69;1747722;82;21878;-75
2022/08/19 11:24:30;;;;;;;9.05;4.12;;;;;;;26.20;100.00;99414.48;1735797;81;21085;-74
2022/08/19 11:27:02;;;;;;;18.65;5.03;;;;;;;26.13;100.00;99408.22;1736066;81;20999;-76
2022/08/19 11:29:29;;;;;;;9.50;4.25;;;;;;;26.01;100.00;99411.86;1739597;81;21114;-73
2022/08/19 11:31:55;;;;;;;9.73;3.98;;;;;;;25.92;100.00;99409.39;1731600;81;21015;-74
2022/08/19 11:34:25;;;;;;;10.45;4.10;;;;;;;25.92;100.00;99418.34;1721701;82;21114;-76
2022/08/19 11:36:52;;;;;;;11.35;4.28;;;;;;;25.91;100.00;99413.94;1747704;82;21042;-75
2022/08/19 11:39:20;;;;;;;12.00;4.28;;;;;;;25.88;100.00;99418.30;1746983;81;21528;-75
2022/08/19 11:41:47;;;;;;;10.23;4.20;;;;;;;25.83;100.00;99412.25;1747642;82;21092;-72
2022/08/19 11:44:14;;;;;;;19.27;4.15;;;;;;;25.70;100.00;99404.75;1744728;81;21057;-72
2022/08/19 11:46:45;;;;;;;9.90;4.42;;;;;;;25.68;100.00;99414.09;1737803;81;21035;-76
2022/08/19 11:49:09;;;;;;;11.83;4.37;;;;;;;25.63;100.00;99409.65;1751414;81;21066;-73
2022/08/19 11:51:36;;;;;;;11.10;3.90;;;;;;;25.64;100.00;99423.00;1747957;81;21003;-76